Time;durP1;ratioP1;P1;durP2;ratioP2;P2;SDS_P1;SDS_P2;PMS_P1;PMS_P2;Temp;Humidity;BMP_temperature;BMP_pressure;BME280_temperature;BME280_humidity;BME280_pressure;Samples;Min_cycle;Max_cycle;Signal;HPM_P1;HPM_P2
2024/03/14 00:00:22;;;;;;;6.22;3.13;;;11.40;96.70;;;;;;4925035;29;20269;-71
2024/03/14 00:02:52;;;;;;;5.07;2.05;;;11.40;96.70;;;;;;4932877;29;20531;-71
2024/03/14 00:05:20;;;;;;;5.25;2.70;;;11.40;96.70;;;;;;4944489;29;20043;-71
2024/03/14 00:07:50;;;;;;;4.28;2.30;;;11.30;96.70;;;;;;4933665;29;20535;-70
2024/03/14 00:10:18;;;;;;;4.97;2.22;;;11.30;96.70;;;;;;4932596;28;20123;-70
2024/03/14 00:12:48;;;;;;;5.88;2.90;;;11.40;96.70;;;;;;4932272;29;20059;-70
2024/03/14 00:15:20;;;;;;;3.60;2.03;;;11.40;96.70;;;;;;4933049;29;20141;-70
2024/03/14 00:17:48;;;;;;;3.55;2.15;;;11.30;96.70;;;;;;4932717;29;20086;-70
2024/03/14 00:20:18;;;;;;;4.13;2.25;;;11.30;96.70;;;;;;4948935;29;20111;-71
2024/03/14 00:22:49;;;;;;;5.88;3.15;;;11.20;96.70;;;;;;4933040;29;20134;-71
2024/03/14 00:25:17;;;;;;;4.43;2.00;;;11.20;96.70;;;;;;4902068;29;20051;-71
2024/03/14 00:27:46;;;;;;;6.35;1.77;;;11.20;96.70;;;;;;4932842;29;20063;-70
2024/03/14 00:30:18;;;;;;;4.55;1.98;;;11.20;96.70;;;;;;4926846;29;20063;-70
2024/03/14 00:32:48;;;;;;;4.32;1.90;;;11.10;96.70;;;;;;4931445;29;20059;-70
2024/03/14 00:35:18;;;;;;;5.88;2.20;;;11.10;96.70;;;;;;4943458;29;20066;-71
2024/03/14 00:37:47;;;;;;;2.95;2.00;;;11.00;96.70;;;;;;4930785;29;20165;-70
2024/03/14 00:40:18;;;;;;;3.22;1.95;;;11.00;96.70;;;;;;4933223;29;20080;-69
2024/03/14 00:42:49;;;;;;;4.15;2.53;;;10.90;96.70;;;;;;4934578;29;20472;-70
2024/03/14 00:45:21;;;;;;;3.05;2.13;;;10.90;96.70;;;;;;4933202;29;20055;-70
2024/03/14 00:47:50;;;;;;;3.70;2.22;;;11.00;96.70;;;;;;4927990;29;20051;-71
2024/03/14 00:50:19;;;;;;;5.93;2.90;;;11.00;96.70;;;;;;4929377;29;20050;-70
2024/03/14 00:52:48;;;;;;;4.72;2.67;;;10.90;96.70;;;;;;4932312;29;20141;-70
2024/03/14 00:55:18;;;;;;;5.30;2.20;;;10.90;96.70;;;;;;4948759;29;20509;-70
2024/03/14 00:57:46;;;;;;;3.30;2.35;;;10.90;96.70;;;;;;4948253;29;20447;-70
2024/03/14 01:00:15;;;;;;;6.57;3.00;;;10.90;96.70;;;;;;4931710;29;20106;-70
2024/03/14 01:02:43;;;;;;;4.55;2.50;;;10.90;96.70;;;;;;4932145;29;20055;-70
2024/03/14 01:05:12;;;;;;;4.85;2.80;;;10.80;96.70;;;;;;4931268;29;20054;-70
2024/03/14 01:07:41;;;;;;;4.00;2.35;;;10.80;96.70;;;;;;4885613;29;20678;-70
2024/03/14 01:10:09;;;;;;;5.10;2.50;;;10.80;96.70;;;;;;4946423;29;20070;-70
2024/03/14 01:12:38;;;;;;;4.75;2.17;;;10.80;96.70;;;;;;4916128;29;20054;-71
2024/03/14 01:15:07;;;;;;;5.50;2.63;;;10.80;96.70;;;;;;4899950;29;20051;-71
2024/03/14 01:17:38;;;;;;;4.72;1.95;;;10.80;96.70;;;;;;4931916;29;20055;-71
2024/03/14 01:20:10;;;;;;;4.93;2.20;;;10.80;96.70;;;;;;4945756;29;20121;-71
2024/03/14 01:22:40;;;;;;;3.47;2.17;;;10.90;96.70;;;;;;4928853;29;20513;-69
2024/03/14 01:25:09;;;;;;;3.00;1.88;;;10.80;96.70;;;;;;4899611;29;20847;-71
2024/03/14 01:27:40;;;;;;;4.68;2.13;;;10.90;96.70;;;;;;4946567;28;20095;-71
2024/03/14 01:30:12;;;;;;;4.38;2.10;;;10.90;96.70;;;;;;4931395;29;20055;-71
2024/03/14 01:32:42;;;;;;;2.70;1.85;;;10.80;96.70;;;;;;4927510;29;20051;-70
2024/03/14 01:35:10;;;;;;;3.97;2.25;;;10.80;96.70;;;;;;4931832;29;20732;-71
2024/03/14 01:37:39;;;;;;;4.63;2.22;;;10.70;96.70;;;;;;4942121;29;20050;-70
2024/03/14 01:40:12;;;;;;;4.53;2.40;;;10.70;96.70;;;;;;4915150;29;20047;-70
2024/03/14 01:42:46;;;;;;;4.05;2.35;;;10.70;96.70;;;;;;4915095;29;20723;-71
2024/03/14 01:45:15;;;;;;;4.63;2.28;;;10.80;96.70;;;;;;4934803;29;20059;-70
2024/03/14 01:47:45;;;;;;;5.10;2.72;;;10.70;96.70;;;;;;4929378;29;20501;-71
2024/03/14 01:50:14;;;;;;;5.03;2.60;;;10.70;96.70;;;;;;4919549;29;20047;-70
2024/03/14 01:52:45;;;;;;;5.72;2.70;;;10.70;96.70;;;;;;4915252;29;20106;-70
2024/03/14 01:55:14;;;;;;;5.60;2.78;;;10.70;96.70;;;;;;4931088;29;20058;-70
2024/03/14 01:57:46;;;;;;;4.88;2.63;;;10.70;96.70;;;;;;4925870;29;20051;-70
2024/03/14 02:00:18;;;;;;;5.55;2.78;;;10.70;96.70;;;;;;4926280;29;20048;-71
2024/03/14 02:02:47;;;;;;;4.28;2.38;;;10.70;96.70;;;;;;4934382;28;20066;-70
2024/03/14 02:05:16;;;;;;;4.95;2.75;;;10.70;96.70;;;;;;4931366;29;20051;-71
2024/03/14 02:07:45;;;;;;;8.25;2.83;;;10.60;96.70;;;;;;4930273;29;20153;-70
2024/03/14 02:10:18;;;;;;;5.88;2.70;;;10.60;96.70;;;;;;4930359;29;20051;-69
2024/03/14 02:12:46;;;;;;;5.68;2.85;;;10.50;96.70;;;;;;4914873;29;20504;-71
2024/03/14 02:15:15;;;;;;;4.30;2.90;;;10.50;96.70;;;;;;4941394;28;20059;-70
2024/03/14 02:17:45;;;;;;;4.80;3.20;;;10.50;96.70;;;;;;4923722;29;20709;-70
2024/03/14 02:20:18;;;;;;;5.93;3.03;;;10.50;96.70;;;;;;4930721;29;20070;-71
2024/03/14 02:22:52;;;;;;;5.03;2.70;;;10.50;96.70;;;;;;4928694;28;20051;-71
2024/03/14 02:25:22;;;;;;;3.33;2.20;;;10.50;96.70;;;;;;4900373;29;20062;-70
2024/03/14 02:27:52;;;;;;;4.30;2.55;;;10.50;96.70;;;;;;4929579;29;20062;-71
2024/03/14 02:30:21;;;;;;;6.38;3.15;;;10.60;96.70;;;;;;4929718;29;20048;-71
2024/03/14 02:32:51;;;;;;;4.32;2.88;;;10.60;96.70;;;;;;4914814;29;20109;-71
2024/03/14 02:35:23;;;;;;;4.38;2.95;;;10.60;96.70;;;;;;4947998;28;20063;-70
2024/03/14 02:37:52;;;;;;;2.45;1.63;;;10.60;96.70;;;;;;4934259;29;20055;-70
2024/03/14 02:40:21;;;;;;;3.05;2.05;;;10.60;96.70;;;;;;4935027;29;20130;-71
2024/03/14 02:42:49;;;;;;;3.40;2.05;;;10.60;96.70;;;;;;4934092;29;20062;-69
2024/03/14 02:45:21;;;;;;;3.05;1.80;;;10.60;96.70;;;;;;4933640;29;20071;-70
2024/03/14 02:47:50;;;;;;;4.53;2.42;;;10.60;96.70;;;;;;4934619;29;20051;-70
2024/03/14 02:50:19;;;;;;;4.88;2.40;;;10.60;96.70;;;;;;4902371;29;20073;-70
2024/03/14 02:52:51;;;;;;;6.75;2.90;;;10.60;96.70;;;;;;4934683;29;20572;-70
2024/03/14 02:55:21;;;;;;;6.50;2.97;;;10.60;96.70;;;;;;4934326;29;20531;-71
2024/03/14 02:57:50;;;;;;;5.40;3.38;;;10.60;96.70;;;;;;4946815;29;20109;-71
2024/03/14 03:00:19;;;;;;;6.07;3.33;;;10.50;96.70;;;;;;4933560;29;20741;-71
2024/03/14 03:02:47;;;;;;;5.10;2.88;;;10.50;96.70;;;;;;4933585;29;20138;-71
2024/03/14 03:05:17;;;;;;;6.97;3.55;;;10.50;96.70;;;;;;4949400;29;20662;-70
2024/03/14 03:07:45;;;;;;;7.80;3.47;;;10.50;96.70;;;;;;4918035;29;20047;-71
2024/03/14 03:10:16;;;;;;;6.25;3.47;;;10.40;96.70;;;;;;4933985;29;20518;-71
2024/03/14 03:12:44;;;;;;;7.20;3.90;;;10.40;96.70;;;;;;4929452;29;20145;-71
2024/03/14 03:15:14;;;;;;;7.32;3.97;;;10.40;96.70;;;;;;4944836;29;20138;-71
2024/03/14 03:17:43;;;;;;;7.60;3.95;;;10.50;96.70;;;;;;4942692;29;20090;-71
2024/03/14 03:20:18;;;;;;;5.80;3.10;;;10.50;96.70;;;;;;4934627;29;20062;-70
2024/03/14 03:23:06;;;;;;;5.93;3.00;;;10.50;96.70;;;;;;4933132;29;20082;-70
2024/03/14 03:25:35;;;;;;;6.68;3.55;;;10.60;96.70;;;;;;4921492;29;20060;-71
2024/03/14 03:28:04;;;;;;;7.55;3.22;;;10.50;96.70;;;;;;4917650;29;20059;-71
2024/03/14 03:30:32;;;;;;;6.55;3.78;;;10.40;96.70;;;;;;4915776;29;20095;-71
2024/03/14 03:33:02;;;;;;;6.50;3.80;;;10.50;96.70;;;;;;4933554;29;20484;-71
2024/03/14 03:35:35;;;;;;;7.32;3.55;;;10.50;96.70;;;;;;4918616;29;20055;-71
2024/03/14 03:38:06;;;;;;;9.40;4.03;;;10.40;96.70;;;;;;4946021;28;20058;-71
2024/03/14 03:40:37;;;;;;;11.25;3.70;;;10.30;96.70;;;;;;4951646;28;20524;-71
2024/03/14 03:43:08;;;;;;;6.28;3.88;;;10.20;96.70;;;;;;4918909;29;20163;-71
2024/03/14 03:45:38;;;;;;;7.85;2.90;;;10.30;96.70;;;;;;4916756;29;20047;-71
2024/03/14 03:48:11;;;;;;;4.95;3.10;;;10.30;96.70;;;;;;4918129;29;20067;-71
2024/03/14 03:50:40;;;;;;;5.40;3.08;;;10.40;96.70;;;;;;4918092;29;20051;-70
2024/03/14 03:53:11;;;;;;;5.63;3.40;;;10.40;96.70;;;;;;4933215;29;20070;-71
2024/03/14 03:55:40;;;;;;;4.75;2.90;;;10.40;96.70;;;;;;4932243;29;20063;-70
2024/03/14 03:58:10;;;;;;;5.50;3.13;;;10.30;96.70;;;;;;4942949;29;20541;-71
2024/03/14 04:00:43;;;;;;;6.35;3.28;;;10.30;96.70;;;;;;4930334;29;20210;-71
2024/03/14 04:03:12;;;;;;;5.13;2.88;;;10.30;96.70;;;;;;4933075;29;20063;-70
2024/03/14 04:05:42;;;;;;;6.40;3.03;;;10.40;96.70;;;;;;4932129;29;20055;-71
2024/03/14 04:08:10;;;;;;;6.50;2.75;;;10.30;96.70;;;;;;4930661;29;20113;-70
2024/03/14 04:10:39;;;;;;;6.30;2.78;;;10.30;96.70;;;;;;4930503;29;20035;-71
2024/03/14 04:13:15;;;;;;;4.82;2.90;;;10.40;96.70;;;;;;4932162;29;20062;-71
2024/03/14 04:15:44;;;;;;;3.95;2.35;;;10.40;96.70;;;;;;4932123;29;20121;-71
2024/03/14 04:18:13;;;;;;;3.50;2.17;;;10.40;96.70;;;;;;4932550;29;20047;-71
2024/03/14 04:20:42;;;;;;;4.55;2.47;;;10.50;96.70;;;;;;4931448;29;20062;-68
2024/03/14 04:23:13;;;;;;;4.03;2.53;;;10.40;96.70;;;;;;4929438;29;20075;-71
2024/03/14 04:25:41;;;;;;;4.00;2.35;;;10.50;96.70;;;;;;4932217;29;20059;-70
2024/03/14 04:28:10;;;;;;;4.68;2.35;;;10.50;96.70;;;;;;4925069;29;20055;-70
2024/03/14 04:30:39;;;;;;;6.65;2.88;;;10.50;96.70;;;;;;4888161;29;20075;-70
2024/03/14 04:33:08;;;;;;;4.30;2.33;;;10.60;96.70;;;;;;4931117;29;20059;-69
2024/03/14 04:35:37;;;;;;;3.55;2.47;;;10.60;96.70;;;;;;4916415;29;20082;-70
2024/03/14 04:38:06;;;;;;;3.63;2.88;;;10.60;96.70;;;;;;4928187;29;20047;-69
2024/03/14 04:40:34;;;;;;;3.75;2.45;;;10.60;96.70;;;;;;4900664;29;20043;-70
2024/03/14 04:43:08;;;;;;;3.90;2.67;;;10.60;96.70;;;;;;4936747;29;20060;-69
2024/03/14 04:45:36;;;;;;;3.47;2.50;;;10.60;96.70;;;;;;4913070;29;20062;-70
2024/03/14 04:48:04;;;;;;;5.57;2.78;;;10.60;96.70;;;;;;4947767;29;20497;-70
2024/03/14 04:50:35;;;;;;;4.05;2.20;;;10.70;96.70;;;;;;4924055;29;20070;-70
2024/03/14 04:53:09;;;;;;;3.08;2.30;;;10.60;96.70;;;;;;4931127;29;20066;-70
2024/03/14 04:55:39;;;;;;;5.22;2.78;;;10.60;96.70;;;;;;4928502;29;20055;-70
2024/03/14 04:58:07;;;;;;;4.50;2.67;;;10.60;96.70;;;;;;4915603;29;20086;-69
2024/03/14 05:00:39;;;;;;;3.67;2.90;;;10.60;96.70;;;;;;4931328;29;20067;-70
2024/03/14 05:03:07;;;;;;;4.72;2.83;;;10.60;96.70;;;;;;4924364;29;20110;-70
2024/03/14 05:05:35;;;;;;;5.05;2.60;;;10.60;96.70;;;;;;4931127;29;20051;-70
2024/03/14 05:08:04;;;;;;;4.30;2.72;;;10.60;96.70;;;;;;4931457;29;20043;-70
2024/03/14 05:10:32;;;;;;;4.15;2.80;;;10.60;96.70;;;;;;4929267;29;20054;-69
2024/03/14 05:13:00;;;;;;;7.72;2.75;;;10.60;96.70;;;;;;4930316;29;20047;-69
2024/03/14 05:15:29;;;;;;;4.10;2.85;;;10.60;96.70;;;;;;4908302;29;20047;-69
2024/03/14 05:18:02;;;;;;;9.70;3.97;;;10.60;96.70;;;;;;4931515;29;20141;-68
2024/03/14 05:20:31;;;;;;;7.50;3.13;;;10.60;96.70;;;;;;4930421;29;20074;-69
2024/03/14 05:22:59;;;;;;;5.63;2.75;;;10.60;96.70;;;;;;4881769;29;20131;-70
2024/03/14 05:25:28;;;;;;;5.57;2.83;;;10.50;96.70;;;;;;4897507;29;20055;-69
2024/03/14 05:27:56;;;;;;;5.68;3.08;;;10.60;96.70;;;;;;4914072;29;20102;-69
2024/03/14 05:30:24;;;;;;;4.43;2.85;;;10.60;96.70;;;;;;4926460;29;20456;-69
2024/03/14 05:32:53;;;;;;;4.40;2.65;;;10.60;96.70;;;;;;4924289;28;20051;-68
2024/03/14 05:35:22;;;;;;;4.40;2.70;;;10.60;96.70;;;;;;4946180;29;20102;-70
2024/03/14 05:37:51;;;;;;;4.95;3.10;;;10.60;96.70;;;;;;4928793;29;20058;-69
2024/03/14 05:40:19;;;;;;;6.30;2.90;;;10.60;96.70;;;;;;4897376;29;20102;-69
2024/03/14 05:42:48;;;;;;;7.28;3.90;;;10.70;96.70;;;;;;4931078;29;20051;-69
2024/03/14 05:45:18;;;;;;;4.93;2.80;;;10.70;96.70;;;;;;4946345;29;20047;-69
2024/03/14 05:47:48;;;;;;;4.57;2.83;;;10.70;96.70;;;;;;4922258;29;20101;-69
2024/03/14 05:50:16;;;;;;;4.53;3.05;;;10.70;96.70;;;;;;4921483;29;20122;-69
2024/03/14 05:52:47;;;;;;;4.32;2.85;;;10.80;96.70;;;;;;4914810;29;20047;-69
2024/03/14 05:55:15;;;;;;;4.60;3.05;;;10.80;96.70;;;;;;4925903;29;20051;-69
2024/03/14 05:57:43;;;;;;;4.55;2.90;;;10.80;96.70;;;;;;4947272;29;20404;-70
2024/03/14 06:00:12;;;;;;;3.85;2.53;;;10.80;96.70;;;;;;4910375;29;20058;-70
2024/03/14 06:02:41;;;;;;;5.60;2.70;;;10.90;96.70;;;;;;4926041;29;20853;-69
2024/03/14 06:05:10;;;;;;;3.65;2.63;;;11.00;96.70;;;;;;4945547;29;20050;-69
2024/03/14 06:07:40;;;;;;;3.60;2.40;;;11.00;96.70;;;;;;4931032;29;20059;-70
2024/03/14 06:10:10;;;;;;;4.75;2.22;;;11.00;96.70;;;;;;4929690;29;20047;-69
2024/03/14 06:12:45;;;;;;;4.90;2.40;;;11.10;96.70;;;;;;4926861;29;20084;-69
2024/03/14 06:15:13;;;;;;;4.22;2.50;;;11.10;96.70;;;;;;4908541;29;20055;-69
2024/03/14 06:17:42;;;;;;;4.40;2.25;;;11.20;96.70;;;;;;4914433;29;20049;-69
2024/03/14 06:20:11;;;;;;;5.45;2.53;;;11.20;96.70;;;;;;4929382;29;20047;-69
2024/03/14 06:22:44;;;;;;;4.97;2.50;;;11.20;96.70;;;;;;4930307;29;20055;-69
2024/03/14 06:25:15;;;;;;;4.82;3.13;;;11.30;96.70;;;;;;4928113;29;20059;-69
2024/03/14 06:27:45;;;;;;;3.20;2.35;;;11.20;96.70;;;;;;4929976;29;20059;-70
2024/03/14 06:30:13;;;;;;;5.22;2.58;;;11.20;96.70;;;;;;4926624;29;20066;-69
2024/03/14 06:32:46;;;;;;;4.18;2.60;;;11.20;96.70;;;;;;4942391;29;20146;-70
2024/03/14 06:35:16;;;;;;;6.13;2.35;;;11.30;96.70;;;;;;4942618;29;20045;-69
2024/03/14 06:37:46;;;;;;;5.43;2.78;;;11.20;96.70;;;;;;4914579;29;20457;-70
2024/03/14 06:40:15;;;;;;;5.00;2.55;;;11.30;96.70;;;;;;4921996;29;20051;-69
2024/03/14 06:42:46;;;;;;;5.15;3.10;;;11.30;96.70;;;;;;4898414;29;20055;-70
2024/03/14 06:45:14;;;;;;;4.60;2.83;;;11.30;96.70;;;;;;4929339;29;20062;-70
2024/03/14 06:47:44;;;;;;;5.97;3.28;;;11.30;96.70;;;;;;4913344;29;20816;-70
2024/03/14 06:50:14;;;;;;;6.38;3.20;;;11.40;96.70;;;;;;4930280;29;20686;-70
2024/03/14 06:52:44;;;;;;;4.60;3.58;;;11.40;96.70;;;;;;4942479;28;20577;-70
2024/03/14 06:55:15;;;;;;;4.53;3.55;;;11.50;96.70;;;;;;4911821;29;20436;-70
2024/03/14 06:57:47;;;;;;;5.03;3.42;;;11.50;96.70;;;;;;4929794;29;20745;-69
2024/03/14 07:00:22;;;;;;;7.05;3.72;;;11.60;96.70;;;;;;4906308;29;20043;-70
2024/03/14 07:02:51;;;;;;;6.93;3.80;;;11.60;96.70;;;;;;4940504;28;20508;-69
2024/03/14 07:05:24;;;;;;;6.78;4.15;;;11.70;96.70;;;;;;4939906;29;20052;-70
2024/03/14 07:07:53;;;;;;;5.97;4.25;;;11.70;96.70;;;;;;4917430;29;20126;-70
2024/03/14 07:10:22;;;;;;;7.95;4.22;;;11.80;96.70;;;;;;4927097;29;20052;-70
2024/03/14 07:12:50;;;;;;;6.82;4.13;;;11.90;96.70;;;;;;4924986;29;20113;-70
2024/03/14 07:15:19;;;;;;;7.55;4.22;;;11.80;96.70;;;;;;4914145;29;20055;-69
2024/03/14 07:17:49;;;;;;;11.00;4.20;;;11.90;96.70;;;;;;4913163;29;20796;-70
2024/03/14 07:20:24;;;;;;;8.15;3.90;;;11.90;96.70;;;;;;4908883;29;20055;-71
2024/03/14 07:22:53;;;;;;;6.80;4.25;;;12.00;96.70;;;;;;4934272;29;20134;-70
2024/03/14 07:25:23;;;;;;;7.20;4.03;;;12.00;96.70;;;;;;4933591;29;20571;-70
2024/03/14 07:27:51;;;;;;;6.05;3.97;;;12.10;96.70;;;;;;4947678;29;20059;-71
2024/03/14 07:30:24;;;;;;;7.28;4.05;;;12.10;96.70;;;;;;4932872;29;20058;-70
2024/03/14 07:32:54;;;;;;;6.38;3.90;;;12.10;96.70;;;;;;4936425;29;20055;-69
2024/03/14 07:35:23;;;;;;;8.98;4.47;;;12.20;96.70;;;;;;4933011;29;20043;-70
2024/03/14 07:37:52;;;;;;;6.65;3.78;;;12.30;96.70;;;;;;4944550;29;20043;-70
2024/03/14 07:40:26;;;;;;;6.57;3.85;;;12.40;96.70;;;;;;4949606;29;20420;-70
2024/03/14 07:42:54;;;;;;;6.78;3.42;;;12.40;96.70;;;;;;4925691;29;20094;-70
2024/03/14 07:45:22;;;;;;;4.53;3.40;;;12.50;96.70;;;;;;4902522;29;20051;-70
2024/03/14 07:47:54;;;;;;;8.52;4.45;;;12.60;96.70;;;;;;4933502;29;20150;-70
2024/03/14 07:50:22;;;;;;;6.00;4.70;;;12.60;96.70;;;;;;4917501;29;20178;-70
2024/03/14 07:52:53;;;;;;;6.05;4.03;;;12.70;96.70;;;;;;4929443;29;20046;-70
2024/03/14 07:55:22;;;;;;;6.07;3.55;;;12.70;96.70;;;;;;4933457;29;20487;-69
2024/03/14 07:57:51;;;;;;;5.38;3.90;;;12.70;96.70;;;;;;4943107;29;20039;-70
2024/03/14 08:00:22;;;;;;;5.63;3.75;;;12.70;96.70;;;;;;4925425;29;20074;-69
2024/03/14 08:03:01;;;;;;;6.30;3.95;;;12.80;96.70;;;;;;4924648;29;20452;-69
2024/03/14 08:05:34;;;;;;;8.02;3.67;;;12.90;96.70;;;;;;4949070;29;20054;-70
2024/03/14 08:08:05;;;;;;;6.75;4.05;;;12.90;96.70;;;;;;4917671;29;20145;-69
2024/03/14 08:10:46;;;;;;;6.78;3.97;;;12.90;96.70;;;;;;4932219;29;20079;-70
2024/03/14 08:13:23;;;;;;;7.60;3.60;;;13.10;96.70;;;;;;4887812;29;20051;-70
2024/03/14 08:15:59;;;;;;;8.27;4.05;;;13.20;96.70;;;;;;4932799;29;20082;-70
2024/03/14 08:18:30;;;;;;;7.35;4.13;;;13.30;96.70;;;;;;4932855;29;20051;-69
2024/03/14 08:20:59;;;;;;;8.05;4.10;;;13.40;96.70;;;;;;4917366;29;20047;-70
2024/03/14 08:23:27;;;;;;;6.13;4.00;;;13.50;96.70;;;;;;4940183;29;20146;-70
2024/03/14 08:25:56;;;;;;;12.00;4.10;;;13.60;96.70;;;;;;4930394;29;20070;-70
2024/03/14 08:28:27;;;;;;;7.22;3.90;;;13.60;96.70;;;;;;4919136;29;20055;-70
2024/03/14 08:30:58;;;;;;;6.07;3.78;;;13.70;96.70;;;;;;4916365;29;20061;-68
2024/03/14 08:33:26;;;;;;;6.15;3.97;;;13.70;96.70;;;;;;4934110;28;20697;-69
2024/03/14 08:35:55;;;;;;;6.55;3.88;;;13.70;96.70;;;;;;4916739;29;20062;-70
2024/03/14 08:38:24;;;;;;;6.50;3.83;;;13.80;96.70;;;;;;4917583;29;20497;-70
2024/03/14 08:40:53;;;;;;;6.30;3.55;;;13.90;96.70;;;;;;4932006;29;20043;-70
2024/03/14 08:43:24;;;;;;;5.70;3.85;;;13.90;96.70;;;;;;4932559;29;20051;-70
2024/03/14 08:45:56;;;;;;;8.77;3.33;;;14.00;96.70;;;;;;4919751;29;20052;-70
2024/03/14 08:48:24;;;;;;;7.13;3.55;;;14.00;96.70;;;;;;4916197;29;20101;-70
2024/03/14 08:50:54;;;;;;;8.32;3.92;;;14.10;96.70;;;;;;4916334;29;20066;-70
2024/03/14 08:53:30;;;;;;;6.72;3.20;;;14.10;96.70;;;;;;4932951;28;20047;-70
2024/03/14 08:56:01;;;;;;;5.75;3.10;;;14.20;96.70;;;;;;4936510;29;20051;-70
2024/03/14 08:58:30;;;;;;;5.97;3.60;;;14.30;96.70;;;;;;4932653;29;20051;-70
2024/03/14 09:01:03;;;;;;;7.10;3.70;;;14.30;96.70;;;;;;4922447;29;20118;-70
2024/03/14 09:03:33;;;;;;;6.70;3.83;;;14.50;96.70;;;;;;4931301;29;20065;-70
2024/03/14 09:06:02;;;;;;;10.07;5.65;;;14.60;96.70;;;;;;4932217;29;20051;-70
2024/03/14 09:08:30;;;;;;;9.75;5.78;;;14.60;96.70;;;;;;4947904;29;20122;-70
2024/03/14 09:11:03;;;;;;;8.77;5.43;;;14.60;96.70;;;;;;4916192;29;20039;-70
2024/03/14 09:13:32;;;;;;;8.77;5.57;;;14.70;96.70;;;;;;4946069;29;20719;-70
2024/03/14 09:16:00;;;;;;;11.52;6.53;;;14.70;96.70;;;;;;4908089;29;20844;-70
2024/03/14 09:18:29;;;;;;;9.68;6.15;;;14.80;96.70;;;;;;4922130;29;20137;-70
2024/03/14 09:20:58;;;;;;;12.48;6.65;;;14.80;96.70;;;;;;4896641;29;20532;-70
2024/03/14 09:23:30;;;;;;;11.60;6.22;;;14.90;96.70;;;;;;4915213;29;20141;-70
2024/03/14 09:25:59;;;;;;;13.73;7.13;;;15.00;96.70;;;;;;4930924;29;20082;-70
2024/03/14 09:28:28;;;;;;;12.95;6.85;;;15.20;96.70;;;;;;4931729;29;20059;-69
2024/03/14 09:31:00;;;;;;;9.35;5.82;;;15.20;96.70;;;;;;4911980;29;20402;-71
2024/03/14 09:33:30;;;;;;;11.85;7.00;;;15.20;96.70;;;;;;4898816;29;20057;-70
2024/03/14 09:36:01;;;;;;;8.60;6.05;;;15.10;96.70;;;;;;4927871;29;20551;-70
2024/03/14 09:38:33;;;;;;;10.05;5.78;;;15.10;96.70;;;;;;4934386;29;20477;-69
2024/03/14 09:41:02;;;;;;;8.68;5.10;;;14.80;96.70;;;;;;4931860;29;20043;-70
2024/03/14 09:43:45;;;;;;;9.73;5.75;;;14.80;96.70;;;;;;4931219;29;20083;-70
2024/03/14 09:46:18;;;;;;;8.00;4.50;;;14.90;96.70;;;;;;4930689;29;20047;-70
2024/03/14 09:48:48;;;;;;;7.85;4.15;;;14.90;96.70;;;;;;4924723;29;20054;-70
2024/03/14 09:51:17;;;;;;;7.00;3.72;;;14.90;96.70;;;;;;4931453;29;20161;-70
2024/03/14 09:53:46;;;;;;;10.60;4.70;;;14.80;96.70;;;;;;4930722;29;20074;-70
2024/03/14 09:56:18;;;;;;;8.38;4.30;;;14.80;96.70;;;;;;4916031;29;20520;-70
2024/03/14 09:58:49;;;;;;;7.30;4.13;;;14.90;96.70;;;;;;4900647;29;20512;-70
2024/03/14 10:01:21;;;;;;;7.57;4.50;;;15.00;96.70;;;;;;4947010;29;20117;-70
2024/03/14 10:03:50;;;;;;;7.60;4.97;;;15.20;96.70;;;;;;4942589;29;20395;-70
2024/03/14 10:06:21;;;;;;;7.18;3.97;;;15.30;96.70;;;;;;4929369;29;20055;-70
2024/03/14 10:08:50;;;;;;;6.15;3.90;;;15.50;96.70;;;;;;4912694;29;20079;-70
2024/03/14 10:11:20;;;;;;;8.43;3.83;;;15.60;96.70;;;;;;4928996;29;20134;-69
2024/03/14 10:13:50;;;;;;;6.68;3.65;;;15.80;96.70;;;;;;4931010;29;20063;-70
2024/03/14 10:16:21;;;;;;;6.07;3.53;;;15.70;96.70;;;;;;4934201;28;20150;-71
2024/03/14 10:18:51;;;;;;;7.85;4.65;;;15.70;96.70;;;;;;4918729;29;20594;-70
2024/03/14 10:21:24;;;;;;;10.52;4.75;;;16.00;96.70;;;;;;4911665;29;20131;-69
2024/03/14 10:23:56;;;;;;;7.03;4.22;;;16.30;96.70;;;;;;4921211;29;20497;-70
2024/03/14 10:26:30;;;;;;;7.07;4.40;;;16.50;96.70;;;;;;4927711;29;20078;-70
2024/03/14 10:29:01;;;;;;;9.55;5.40;;;16.70;96.70;;;;;;4882122;29;20146;-69
2024/03/14 10:31:29;;;;;;;7.32;5.78;;;16.80;96.70;;;;;;4931358;29;20162;-71
2024/03/14 10:33:58;;;;;;;9.25;6.05;;;17.00;96.70;;;;;;4926716;29;20047;-70
2024/03/14 10:36:30;;;;;;;12.45;6.20;;;17.00;96.70;;;;;;4922590;29;20600;-69
2024/03/14 10:38:59;;;;;;;8.60;5.32;;;16.90;96.70;;;;;;4915004;29;20059;-69
2024/03/14 10:41:29;;;;;;;9.38;5.72;;;16.90;96.70;;;;;;4944373;29;20719;-69
2024/03/14 10:44:00;;;;;;;8.13;5.35;;;17.00;96.70;;;;;;4894469;29;20055;-70
2024/03/14 10:46:30;;;;;;;7.18;5.22;;;17.20;96.70;;;;;;4929716;29;20571;-70
2024/03/14 10:49:00;;;;;;;10.02;5.60;;;17.10;96.70;;;;;;4914683;29;20153;-70
2024/03/14 10:51:30;;;;;;;7.90;5.30;;;17.20;96.70;;;;;;4929656;29;20059;-70
2024/03/14 10:53:58;;;;;;;8.80;5.28;;;17.30;96.70;;;;;;4931102;29;20052;-70
2024/03/14 10:56:29;;;;;;;8.77;4.25;;;17.40;96.70;;;;;;4949064;28;20062;-70
2024/03/14 10:58:58;;;;;;;6.07;4.43;;;17.20;96.70;;;;;;4933747;29;20047;-67
2024/03/14 11:01:27;;;;;;;8.80;4.32;;;17.00;96.70;;;;;;4917799;29;20058;-67
2024/03/14 11:03:56;;;;;;;8.30;4.32;;;16.70;96.70;;;;;;4933937;29;20059;-66
2024/03/14 11:06:26;;;;;;;6.97;4.70;;;16.70;96.70;;;;;;4934358;29;20110;-67
2024/03/14 11:08:54;;;;;;;7.45;4.00;;;16.70;96.70;;;;;;4926002;29;20639;-67
2024/03/14 11:11:23;;;;;;;8.60;4.57;;;16.60;96.70;;;;;;4920987;29;20040;-67
2024/03/14 11:13:53;;;;;;;7.70;4.50;;;16.60;96.70;;;;;;4918004;29;20094;-68
2024/03/14 11:16:23;;;;;;;7.80;4.70;;;16.50;96.70;;;;;;4934267;29;20110;-67
2024/03/14 11:18:53;;;;;;;7.88;4.75;;;16.40;96.70;;;;;;4917392;29;20082;-67
2024/03/14 11:21:25;;;;;;;8.27;4.97;;;16.40;96.70;;;;;;4918980;29;20047;-67
2024/03/14 11:23:56;;;;;;;7.55;4.55;;;16.40;96.70;;;;;;4934277;29;20102;-68
2024/03/14 11:26:24;;;;;;;8.80;5.15;;;16.60;96.70;;;;;;4933264;29;20055;-67
2024/03/14 11:29:02;;;;;;;7.55;5.25;;;16.60;96.70;;;;;;4933903;29;20078;-67
2024/03/14 11:31:40;;;;;;;7.85;4.85;;;16.70;96.70;;;;;;4933793;29;20106;-66
2024/03/14 11:34:18;;;;;;;11.00;5.65;;;17.10;96.70;;;;;;4949960;29;20051;-67
2024/03/14 11:36:53;;;;;;;10.05;7.15;;;17.30;96.70;;;;;;4913171;29;20105;-67
2024/03/14 11:39:27;;;;;;;6.63;4.90;;;17.30;96.70;;;;;;4918050;29;20058;-70
2024/03/14 11:42:10;;;;;;;10.05;5.38;;;17.40;96.70;;;;;;4933123;29;20051;-70
2024/03/14 11:44:42;;;;;;;8.70;5.47;;;17.70;96.70;;;;;;4939059;29;20468;-70
2024/03/14 11:47:14;;;;;;;12.05;6.22;;;17.70;96.70;;;;;;4916366;29;20535;-69
2024/03/14 11:49:46;;;;;;;8.88;5.22;;;17.80;96.70;;;;;;4932719;29;20059;-70
2024/03/14 11:52:17;;;;;;;10.38;5.13;;;17.90;96.70;;;;;;4924210;29;20867;-70
2024/03/14 11:54:48;;;;;;;11.00;5.85;;;18.10;96.70;;;;;;4912134;29;20209;-71
2024/03/14 11:57:17;;;;;;;10.20;5.80;;;18.00;96.70;;;;;;4933144;29;20081;-71
2024/03/14 11:59:48;;;;;;;12.07;6.13;;;17.90;96.70;;;;;;4921935;29;20115;-70
2024/03/14 12:02:27;;;;;;;13.15;6.25;;;18.00;96.70;;;;;;4918429;29;20074;-70
2024/03/14 12:04:58;;;;;;;8.88;6.18;;;18.10;96.70;;;;;;4933166;29;20063;-71
2024/03/14 12:07:29;;;;;;;11.38;6.53;;;18.10;96.70;;;;;;4916578;29;20056;-70
2024/03/14 12:09:59;;;;;;;9.10;6.15;;;18.30;96.70;;;;;;4917435;29;20146;-70
2024/03/14 12:12:32;;;;;;;9.05;5.07;;;18.40;96.70;;;;;;4935000;29;20039;-71
2024/03/14 12:15:01;;;;;;;9.98;5.43;;;18.10;96.70;;;;;;4933440;29;20066;-70
2024/03/14 12:17:30;;;;;;;7.95;5.15;;;18.20;96.70;;;;;;4932596;29;20149;-70
2024/03/14 12:20:00;;;;;;;11.60;6.00;;;18.30;96.70;;;;;;4933278;29;20043;-71
2024/03/14 12:22:30;;;;;;;7.78;5.80;;;18.30;96.70;;;;;;4932661;29;20059;-70
2024/03/14 12:25:01;;;;;;;6.32;5.22;;;18.30;96.70;;;;;;4923787;29;20139;-71
2024/03/14 12:27:30;;;;;;;7.60;5.53;;;18.50;96.70;;;;;;4948634;28;20067;-71
2024/03/14 12:30:00;;;;;;;9.02;6.20;;;18.70;96.70;;;;;;4932739;29;20062;-70
2024/03/14 12:32:29;;;;;;;8.52;5.95;;;18.80;96.70;;;;;;4932233;29;20043;-70
2024/03/14 12:35:01;;;;;;;10.63;6.10;;;18.90;96.70;;;;;;4932406;29;20075;-70
2024/03/14 12:37:32;;;;;;;8.88;5.63;;;18.90;96.70;;;;;;4932659;29;20070;-70
2024/03/14 12:40:01;;;;;;;8.95;5.03;;;18.80;96.70;;;;;;4932941;29;20062;-70
2024/03/14 12:42:33;;;;;;;10.50;5.50;;;18.90;96.70;;;;;;4911490;29;20220;-71
2024/03/14 12:45:03;;;;;;;7.35;5.35;;;19.10;96.70;;;;;;4901518;29;20697;-70
2024/03/14 12:47:34;;;;;;;9.57;5.25;;;19.10;96.70;;;;;;4932219;29;20189;-71
2024/03/14 12:50:03;;;;;;;8.27;4.97;;;19.20;96.70;;;;;;4916676;29;20051;-70
2024/03/14 12:52:32;;;;;;;6.65;5.18;;;19.10;96.70;;;;;;4917334;29;20101;-70
2024/03/14 12:55:13;;;;;;;7.55;5.05;;;19.10;96.70;;;;;;4931535;29;20058;-71
2024/03/14 12:57:44;;;;;;;8.20;4.72;;;19.20;96.70;;;;;;4930192;28;20055;-70
2024/03/14 13:00:17;;;;;;;11.15;5.57;;;19.20;96.70;;;;;;4912944;29;20871;-72